Time;durP1;ratioP1;P1;durP2;ratioP2;P2;SDS_P1;SDS_P2;PMS_P1;PMS_P2;Temp;Humidity;BMP_temperature;BMP_pressure;BME280_temperature;BME280_humidity;BME280_pressure;Samples;Min_cycle;Max_cycle;Signal;HPM_P1;HPM_P2
2022/10/22 00:00:46;;;;;;;8.77;4.50;;;20.20;61.10;;;;;;5053309;28;20191;-73
2022/10/22 00:03:13;;;;;;;8.10;4.32;;;20.20;61.20;;;;;;5053115;28;20199;-73
2022/10/22 00:05:40;;;;;;;8.02;4.00;;;20.20;61.10;;;;;;5053159;28;20282;-73
2022/10/22 00:08:08;;;;;;;8.65;4.35;;;20.20;61.20;;;;;;5051953;28;20226;-73
2022/10/22 00:10:36;;;;;;;8.10;4.03;;;20.20;61.30;;;;;;5052990;28;20199;-73
2022/10/22 00:13:05;;;;;;;8.95;3.85;;;20.20;61.10;;;;;;5054454;28;20191;-73
2022/10/22 00:15:32;;;;;;;9.13;4.40;;;20.20;61.20;;;;;;5052766;28;20257;-73
2022/10/22 00:18:00;;;;;;;9.95;4.40;;;20.20;61.10;;;;;;5053381;28;20273;-73
2022/10/22 00:20:27;;;;;;;6.97;3.60;;;20.20;61.20;;;;;;5054467;28;20194;-73
2022/10/22 00:22:54;;;;;;;7.45;3.95;;;20.20;61.10;;;;;;5053230;28;20223;-73
2022/10/22 00:25:21;;;;;;;4.95;3.30;;;20.20;61.10;;;;;;5053519;28;20196;-73
2022/10/22 00:27:48;;;;;;;7.25;4.13;;;20.20;61.20;;;;;;5052893;28;20281;-73
2022/10/22 00:30:17;;;;;;;7.18;3.78;;;20.20;61.10;;;;;;5052809;28;20321;-73
2022/10/22 00:32:43;;;;;;;7.38;3.88;;;20.20;61.30;;;;;;5052203;28;20196;-73
2022/10/22 00:35:10;;;;;;;6.45;3.88;;;20.10;61.10;;;;;;5053233;28;20267;-73
2022/10/22 00:37:37;;;;;;;8.35;4.00;;;20.20;61.20;;;;;;5053004;28;20225;-73
2022/10/22 00:40:05;;;;;;;7.43;3.58;;;20.20;61.30;;;;;;5052726;28;20195;-73
2022/10/22 00:42:32;;;;;;;7.40;3.83;;;20.10;61.20;;;;;;5053121;28;20219;-73
2022/10/22 00:45:24;;;;;;;6.90;3.85;;;20.10;61.30;;;;;;5052649;28;20570;-73
2022/10/22 00:47:57;;;;;;;7.63;3.63;;;20.10;61.30;;;;;;5033916;28;20689;-73
2022/10/22 00:50:28;;;;;;;7.47;4.07;;;20.10;61.30;;;;;;5052973;28;20203;-72
2022/10/22 00:52:55;;;;;;;5.30;3.30;;;20.10;61.30;;;;;;5053313;28;20199;-72
2022/10/22 00:55:22;;;;;;;7.78;3.80;;;20.10;61.30;;;;;;5053372;28;20587;-72
2022/10/22 00:57:49;;;;;;;6.35;3.20;;;20.00;61.10;;;;;;5055520;28;20215;-73
2022/10/22 01:00:16;;;;;;;6.93;3.65;;;20.10;61.30;;;;;;5060479;28;20209;-73
2022/10/22 01:02:45;;;;;;;6.18;3.40;;;20.10;61.40;;;;;;5053328;28;20229;-73
2022/10/22 01:05:12;;;;;;;6.45;3.60;;;20.00;61.30;;;;;;5059407;28;20206;-73
2022/10/22 01:07:42;;;;;;;6.72;3.45;;;20.00;61.30;;;;;;5053284;28;20223;-73
2022/10/22 01:10:11;;;;;;;5.75;3.40;;;20.00;61.30;;;;;;5052981;28;20195;-73
2022/10/22 01:12:43;;;;;;;7.20;3.72;;;20.00;61.30;;;;;;5052875;28;20198;-73
2022/10/22 01:15:15;;;;;;;5.65;3.75;;;20.00;61.40;;;;;;5052545;28;20195;-73
2022/10/22 01:17:47;;;;;;;5.82;3.60;;;20.00;61.30;;;;;;5053450;28;20597;-73
2022/10/22 01:20:21;;;;;;;6.47;3.60;;;20.00;61.50;;;;;;5052247;28;20603;-73
2022/10/22 01:22:54;;;;;;;5.78;3.47;;;20.00;61.50;;;;;;5052205;28;20214;-73
2022/10/22 01:25:24;;;;;;;5.38;3.15;;;20.00;61.40;;;;;;5052355;28;20564;-73
2022/10/22 01:27:56;;;;;;;4.35;3.13;;;20.00;61.50;;;;;;5052265;28;20227;-73
2022/10/22 01:30:25;;;;;;;5.95;3.50;;;20.00;61.50;;;;;;5052268;28;20650;-73
2022/10/22 01:32:54;;;;;;;6.50;3.08;;;20.00;61.50;;;;;;5052106;28;20202;-73
2022/10/22 01:35:23;;;;;;;6.07;3.20;;;20.00;61.50;;;;;;5052718;28;20195;-73
2022/10/22 01:37:50;;;;;;;6.35;3.95;;;20.00;61.50;;;;;;5053287;28;20223;-73
2022/10/22 01:40:17;;;;;;;6.15;3.42;;;20.00;61.60;;;;;;5052476;28;20199;-73
2022/10/22 01:42:57;;;;;;;6.20;3.88;;;20.00;61.50;;;;;;5052749;28;20212;-73
2022/10/22 01:45:26;;;;;;;6.13;3.55;;;20.00;61.60;;;;;;5056140;28;20187;-73
2022/10/22 01:47:57;;;;;;;6.57;3.30;;;20.00;61.60;;;;;;5056226;28;20219;-73
2022/10/22 01:50:41;;;;;;;6.80;3.80;;;20.00;61.60;;;;;;5056019;28;20188;-73
2022/10/22 01:53:18;;;;;;;5.03;2.83;;;19.90;61.50;;;;;;5056035;28;20218;-73
2022/10/22 01:55:52;;;;;;;4.30;3.42;;;20.00;61.60;;;;;;5057325;28;20683;-73
2022/10/22 01:58:22;;;;;;;4.55;2.95;;;20.00;61.60;;;;;;5056189;28;20230;-73
2022/10/22 02:00:54;;;;;;;5.40;2.97;;;19.90;61.50;;;;;;5057704;28;20175;-73
2022/10/22 02:03:23;;;;;;;4.35;3.00;;;19.90;61.40;;;;;;5056350;28;20281;-73
2022/10/22 02:05:51;;;;;;;5.65;2.92;;;19.90;61.40;;;;;;5057023;28;20287;-73
2022/10/22 02:08:20;;;;;;;5.88;3.03;;;19.90;61.40;;;;;;5056225;28;20215;-73
2022/10/22 02:10:47;;;;;;;5.57;2.85;;;19.90;61.40;;;;;;5056376;28;20238;-73
2022/10/22 02:13:16;;;;;;;3.88;2.60;;;19.90;61.40;;;;;;5075707;28;20191;-73
2022/10/22 02:15:43;;;;;;;4.38;2.80;;;19.90;61.50;;;;;;5057206;28;20192;-73
2022/10/22 02:18:12;;;;;;;4.88;2.90;;;19.90;61.40;;;;;;5056758;28;20302;-73
2022/10/22 02:20:39;;;;;;;4.25;2.55;;;19.90;61.50;;;;;;5056033;28;20203;-73
2022/10/22 02:23:06;;;;;;;4.20;2.58;;;19.90;61.50;;;;;;5056407;28;20254;-73
2022/10/22 02:25:35;;;;;;;4.95;2.75;;;19.90;61.50;;;;;;5069847;28;20225;-73
2022/10/22 02:28:04;;;;;;;3.83;2.58;;;19.90;61.50;;;;;;5068436;28;20203;-73
2022/10/22 02:30:31;;;;;;;3.28;2.38;;;19.90;61.50;;;;;;5057797;28;20605;-73
2022/10/22 02:33:00;;;;;;;3.92;2.70;;;19.80;61.40;;;;;;5055796;28;20667;-73
2022/10/22 02:35:28;;;;;;;3.60;2.50;;;19.90;61.50;;;;;;5056157;28;20281;-73
2022/10/22 02:37:56;;;;;;;4.22;2.78;;;19.90;61.50;;;;;;5055730;28;20384;-73
2022/10/22 02:40:23;;;;;;;4.47;2.75;;;19.80;61.40;;;;;;5055859;28;20544;-73
2022/10/22 02:42:51;;;;;;;3.78;2.63;;;19.90;61.50;;;;;;5038857;28;20599;-73
2022/10/22 02:45:18;;;;;;;5.40;2.60;;;19.80;61.40;;;;;;5055686;28;20196;-73
2022/10/22 02:47:47;;;;;;;5.05;2.50;;;19.80;61.30;;;;;;5055600;28;20306;-73
2022/10/22 02:50:14;;;;;;;4.07;2.72;;;19.80;61.40;;;;;;5038773;28;20252;-74
2022/10/22 02:52:43;;;;;;;4.30;2.75;;;19.80;61.40;;;;;;5037544;28;20283;-73
2022/10/22 02:55:10;;;;;;;3.88;2.40;;;19.80;61.50;;;;;;5053606;28;20607;-73
2022/10/22 02:57:36;;;;;;;3.83;2.50;;;19.80;61.30;;;;;;5054610;28;20234;-73
2022/10/22 03:00:04;;;;;;;4.25;2.58;;;19.80;61.30;;;;;;5054841;28;20195;-73
2022/10/22 03:02:31;;;;;;;3.47;2.75;;;19.80;61.30;;;;;;5054728;28;20760;-73
2022/10/22 03:04:58;;;;;;;5.38;2.75;;;19.80;61.30;;;;;;5054679;28;20237;-73
2022/10/22 03:07:25;;;;;;;4.35;2.60;;;19.80;61.30;;;;;;5055065;28;20219;-73
2022/10/22 03:09:53;;;;;;;4.40;2.30;;;19.80;61.30;;;;;;5054419;28;20199;-73
2022/10/22 03:12:21;;;;;;;3.88;2.50;;;19.80;61.30;;;;;;5037785;28;20202;-73
2022/10/22 03:14:48;;;;;;;3.28;2.28;;;19.80;61.30;;;;;;5054529;28;20219;-73
2022/10/22 03:17:15;;;;;;;5.20;2.72;;;19.80;61.30;;;;;;5054368;28;20250;-73
2022/10/22 03:19:42;;;;;;;5.05;2.90;;;19.80;61.50;;;;;;5054353;28;20294;-73
2022/10/22 03:22:11;;;;;;;2.83;2.13;;;19.80;61.40;;;;;;5037972;28;20294;-73
2022/10/22 03:24:39;;;;;;;3.50;2.30;;;19.80;61.20;;;;;;5054378;28;20203;-73
2022/10/22 03:27:08;;;;;;;3.53;2.40;;;19.90;61.40;;;;;;5055633;28;20207;-73
2022/10/22 03:29:37;;;;;;;3.10;2.33;;;19.90;61.30;;;;;;5055612;28;20661;-73
2022/10/22 03:32:04;;;;;;;3.65;2.40;;;19.90;61.10;;;;;;5054651;28;20202;-73
2022/10/22 03:34:31;;;;;;;4.28;2.20;;;19.90;61.00;;;;;;5054806;28;20257;-73
2022/10/22 03:36:59;;;;;;;3.95;2.42;;;19.90;60.90;;;;;;5054811;28;20715;-73
2022/10/22 03:39:26;;;;;;;3.95;2.30;;;20.00;60.90;;;;;;5055363;28;20204;-73
2022/10/22 03:41:53;;;;;;;3.63;2.25;;;20.00;60.70;;;;;;5055780;28;20222;-73
2022/10/22 03:44:22;;;;;;;4.43;2.40;;;20.00;60.60;;;;;;5054007;28;20199;-73
2022/10/22 03:46:49;;;;;;;3.22;2.13;;;20.10;60.80;;;;;;5055516;28;20270;-73
2022/10/22 03:49:16;;;;;;;3.90;2.45;;;20.10;60.50;;;;;;5055117;28;20195;-73
2022/10/22 03:51:43;;;;;;;4.80;2.60;;;20.10;60.70;;;;;;5053777;28;20246;-73
2022/10/22 03:54:10;;;;;;;4.20;2.30;;;20.10;60.50;;;;;;5055099;28;20183;-73
2022/10/22 03:56:37;;;;;;;3.63;2.42;;;20.10;60.50;;;;;;5054033;28;20618;-73
2022/10/22 03:59:04;;;;;;;3.20;2.47;;;20.10;60.50;;;;;;5054754;28;20188;-73
2022/10/22 04:01:33;;;;;;;2.83;2.25;;;20.10;60.50;;;;;;5054915;28;20194;-73
2022/10/22 04:04:00;;;;;;;3.45;2.50;;;20.10;60.50;;;;;;5053579;28;20215;-73
2022/10/22 04:06:29;;;;;;;3.00;2.22;;;20.20;60.50;;;;;;5052822;28;20202;-73
2022/10/22 04:08:56;;;;;;;4.03;2.53;;;20.20;60.30;;;;;;5053242;28;20697;-74
2022/10/22 04:11:24;;;;;;;4.00;2.17;;;20.20;60.30;;;;;;5054396;28;20274;-73
2022/10/22 04:13:51;;;;;;;3.60;2.30;;;20.20;60.40;;;;;;5053034;28;20194;-73
2022/10/22 04:16:19;;;;;;;3.28;2.10;;;20.10;60.10;;;;;;5053017;28;20226;-73
2022/10/22 04:18:48;;;;;;;4.50;2.30;;;20.20;60.30;;;;;;5052851;28;20247;-73
2022/10/22 04:21:16;;;;;;;4.60;2.45;;;20.20;60.20;;;;;;5053092;28;20286;-73
2022/10/22 04:23:45;;;;;;;2.97;2.15;;;20.20;60.30;;;;;;5052726;28;20215;-73
2022/10/22 04:26:11;;;;;;;3.08;2.25;;;20.20;60.20;;;;;;5052608;28;20231;-73
2022/10/22 04:28:38;;;;;;;3.55;2.45;;;20.10;60.10;;;;;;5052915;28;20277;-73
2022/10/22 04:31:08;;;;;;;3.55;2.30;;;20.20;60.10;;;;;;5052665;28;20207;-73
2022/10/22 04:33:35;;;;;;;2.63;2.03;;;20.10;60.10;;;;;;5052627;28;20199;-73
2022/10/22 04:36:08;;;;;;;4.38;2.22;;;20.10;60.10;;;;;;5052419;28;20199;-73
2022/10/22 04:38:35;;;;;;;3.42;2.25;;;20.20;60.30;;;;;;5052423;28;20326;-73
2022/10/22 04:41:09;;;;;;;3.88;2.50;;;20.20;60.40;;;;;;5052336;28;20206;-73
2022/10/22 04:43:37;;;;;;;5.07;2.30;;;20.10;60.20;;;;;;5052317;28;20221;-73
2022/10/22 04:46:04;;;;;;;4.13;2.28;;;20.20;61.50;;;;;;5051122;28;20206;-73
2022/10/22 04:48:31;;;;;;;4.03;2.35;;;20.10;60.60;;;;;;5042826;28;21060;-73
2022/10/22 04:50:59;;;;;;;4.20;2.10;;;20.10;60.80;;;;;;5031112;28;20200;-73
2022/10/22 04:53:27;;;;;;;2.42;1.95;;;20.10;60.90;;;;;;5047987;28;20196;-73
2022/10/22 04:55:54;;;;;;;4.25;1.92;;;20.10;61.20;;;;;;5052006;28;20253;-73
2022/10/22 04:58:21;;;;;;;3.35;1.83;;;20.10;61.30;;;;;;5052168;28;20224;-73
2022/10/22 05:00:48;;;;;;;2.45;2.08;;;20.10;61.50;;;;;;5053502;28;20191;-73
2022/10/22 05:03:16;;;;;;;2.85;2.13;;;20.10;61.40;;;;;;5052039;28;20689;-73
2022/10/22 05:05:42;;;;;;;3.58;2.00;;;20.10;61.50;;;;;;5052452;28;20199;-73
2022/10/22 05:08:10;;;;;;;3.85;2.03;;;20.10;61.50;;;;;;5051996;28;20223;-73
2022/10/22 05:10:38;;;;;;;3.80;2.00;;;20.10;61.60;;;;;;5049997;28;20282;-73
2022/10/22 05:13:05;;;;;;;2.85;1.90;;;20.10;61.70;;;;;;5049920;28;20253;-73
2022/10/22 05:15:33;;;;;;;4.47;2.30;;;20.10;61.80;;;;;;5051973;28;20214;-73
2022/10/22 05:18:00;;;;;;;3.25;2.10;;;20.10;61.50;;;;;;5052847;28;20579;-73
2022/10/22 05:20:27;;;;;;;3.63;2.13;;;20.00;61.30;;;;;;5054003;28;20195;-73
2022/10/22 05:22:53;;;;;;;5.15;1.85;;;20.10;61.60;;;;;;5042941;28;20220;-73
2022/10/22 05:25:20;;;;;;;3.25;1.70;;;20.00;61.50;;;;;;5038484;28;20279;-73
2022/10/22 05:27:50;;;;;;;2.70;1.70;;;20.00;61.50;;;;;;5056104;28;20622;-73
2022/10/22 05:30:17;;;;;;;2.00;1.65;;;20.00;61.40;;;;;;5056433;28;20195;-73
2022/10/22 05:32:44;;;;;;;2.75;1.83;;;20.00;61.30;;;;;;5056542;28;20206;-73
2022/10/22 05:35:11;;;;;;;1.95;1.52;;;20.00;61.50;;;;;;5056202;28;20214;-73
2022/10/22 05:37:39;;;;;;;3.45;2.00;;;20.00;61.50;;;;;;5055963;28;20236;-73
2022/10/22 05:40:07;;;;;;;2.55;1.73;;;19.90;61.40;;;;;;5055982;28;20658;-73
2022/10/22 05:42:34;;;;;;;3.22;1.80;;;19.90;61.50;;;;;;5056908;28;20554;-73
2022/10/22 05:45:02;;;;;;;1.67;1.58;;;19.90;61.50;;;;;;5056707;28;20191;-73
2022/10/22 05:47:30;;;;;;;2.30;1.58;;;19.90;61.40;;;;;;5055891;28;20242;-73
2022/10/22 05:49:57;;;;;;;3.22;1.55;;;19.90;61.40;;;;;;5056970;28;20214;-73
2022/10/22 05:52:25;;;;;;;3.28;1.83;;;19.90;61.40;;;;;;5054180;28;20287;-73
2022/10/22 05:54:52;;;;;;;2.22;1.45;;;19.80;61.20;;;;;;5054971;28;20187;-73
2022/10/22 05:57:19;;;;;;;2.58;1.60;;;19.80;61.30;;;;;;5055312;28;20216;-74
2022/10/22 05:59:46;;;;;;;2.85;1.60;;;19.80;61.20;;;;;;5055430;28;20199;-73
2022/10/22 06:02:15;;;;;;;5.05;2.20;;;19.80;61.30;;;;;;5055453;28;20201;-73
2022/10/22 06:04:42;;;;;;;3.67;1.88;;;19.80;61.40;;;;;;5038863;28;20254;-73
2022/10/22 06:07:09;;;;;;;2.20;1.80;;;19.80;61.50;;;;;;5056111;28;20226;-73
2022/10/22 06:09:36;;;;;;;2.75;1.70;;;19.80;61.60;;;;;;5058121;28;20192;-73
2022/10/22 06:12:07;;;;;;;3.28;1.92;;;19.80;61.60;;;;;;5057814;28;20195;-73
2022/10/22 06:14:35;;;;;;;3.13;1.80;;;19.90;61.50;;;;;;5056452;28;20207;-73
2022/10/22 06:17:02;;;;;;;2.97;1.90;;;19.80;61.50;;;;;;5056629;28;20215;-74
2022/10/22 06:19:30;;;;;;;3.00;1.70;;;19.90;61.40;;;;;;5055700;28;20200;-72
2022/10/22 06:21:58;;;;;;;2.25;1.63;;;19.90;61.10;;;;;;5055221;28;20671;-72
2022/10/22 06:24:25;;;;;;;2.97;1.65;;;20.00;61.10;;;;;;5055400;28;20215;-72
2022/10/22 06:26:52;;;;;;;2.35;1.63;;;20.00;61.00;;;;;;5055600;28;20195;-72
2022/10/22 06:29:19;;;;;;;3.20;1.48;;;20.00;60.80;;;;;;5055307;28;20195;-72
2022/10/22 06:31:46;;;;;;;3.95;1.73;;;20.00;60.80;;;;;;5056211;28;20188;-71
2022/10/22 06:34:14;;;;;;;1.88;1.40;;;20.10;60.60;;;;;;5055031;28;20222;-71
2022/10/22 06:36:43;;;;;;;2.10;1.40;;;20.10;60.60;;;;;;5054931;28;20213;-71
2022/10/22 06:39:11;;;;;;;2.13;1.58;;;20.10;60.60;;;;;;5056196;28;20214;-72
2022/10/22 06:41:38;;;;;;;3.30;1.70;;;20.10;60.70;;;;;;5056037;28;20657;-72
2022/10/22 06:44:05;;;;;;;2.20;1.40;;;20.10;60.50;;;;;;5054715;28;20698;-71
2022/10/22 06:46:32;;;;;;;3.00;1.50;;;20.10;60.60;;;;;;5055557;28;20211;-71
2022/10/22 06:49:01;;;;;;;3.67;1.90;;;20.10;60.50;;;;;;5054778;28;20297;-71
2022/10/22 06:51:28;;;;;;;3.17;1.45;;;20.10;60.50;;;;;;5054955;28;20204;-71
2022/10/22 06:53:57;;;;;;;2.95;1.70;;;20.10;60.40;;;;;;5054754;28;20340;-71
2022/10/22 06:56:25;;;;;;;1.50;1.40;;;20.10;60.40;;;;;;5054924;28;20215;-71
2022/10/22 06:58:53;;;;;;;2.20;1.45;;;20.10;60.50;;;;;;5056172;28;20207;-71
2022/10/22 07:01:22;;;;;;;2.70;1.60;;;20.10;60.40;;;;;;5055081;28;20222;-71
2022/10/22 07:03:50;;;;;;;3.17;1.60;;;20.10;60.50;;;;;;5055044;28;20272;-71
2022/10/22 07:06:17;;;;;;;2.53;1.60;;;20.10;60.40;;;;;;5054863;28;20196;-72
2022/10/22 07:08:44;;;;;;;3.95;1.73;;;20.10;60.40;;;;;;5055739;28;20257;-72
2022/10/22 07:11:14;;;;;;;2.58;1.70;;;20.10;60.40;;;;;;5054731;28;20196;-72
2022/10/22 07:13:43;;;;;;;2.10;1.45;;;20.10;60.40;;;;;;5039192;28;20179;-72
2022/10/22 07:16:10;;;;;;;2.13;1.40;;;20.10;60.40;;;;;;5056044;28;20260;-72
2022/10/22 07:18:38;;;;;;;2.30;1.50;;;20.10;60.40;;;;;;5056081;28;20214;-72
2022/10/22 07:21:06;;;;;;;1.58;1.40;;;20.10;60.40;;;;;;5055059;28;20249;-72
2022/10/22 07:23:33;;;;;;;2.15;1.67;;;20.10;60.40;;;;;;5056655;28;20254;-72
2022/10/22 07:26:01;;;;;;;3.08;1.40;;;20.20;60.50;;;;;;5072965;28;20199;-72
2022/10/22 07:28:31;;;;;;;1.65;1.40;;;20.10;60.50;;;;;;5060175;28;20222;-72
2022/10/22 07:30:58;;;;;;;3.28;1.77;;;20.10;60.40;;;;;;5056394;28;20211;-72
2022/10/22 07:33:27;;;;;;;2.25;1.58;;;20.20;60.50;;;;;;5055132;28;20202;-72
2022/10/22 07:35:57;;;;;;;2.95;1.70;;;20.20;60.60;;;;;;5057274;28;20226;-71
2022/10/22 07:38:25;;;;;;;3.08;1.33;;;20.10;60.40;;;;;;5057799;28;20239;-72
2022/10/22 07:40:52;;;;;;;2.55;1.50;;;20.20;60.40;;;;;;5054697;28;20262;-72
2022/10/22 07:43:19;;;;;;;2.30;1.80;;;20.20;60.30;;;;;;5054283;28;20203;-71
2022/10/22 07:45:47;;;;;;;2.78;1.40;;;20.10;60.10;;;;;;5054441;28;20199;-71
2022/10/22 07:48:14;;;;;;;2.15;1.80;;;20.20;60.20;;;;;;5054670;28;20223;-71
2022/10/22 07:50:41;;;;;;;2.58;1.70;;;20.10;60.10;;;;;;5056241;28;20249;-71
2022/10/22 07:53:08;;;;;;;2.35;1.50;;;20.20;60.90;;;;;;5055363;28;20654;-71
2022/10/22 07:55:35;;;;;;;3.10;1.70;;;20.20;60.00;;;;;;5054237;28;20199;-71
2022/10/22 07:58:02;;;;;;;3.08;1.63;;;20.20;60.00;;;;;;5053894;28;20223;-72
2022/10/22 08:00:29;;;;;;;1.73;1.35;;;20.20;60.00;;;;;;5054096;28;20199;-72
2022/10/22 08:02:58;;;;;;;3.10;1.70;;;20.20;60.80;;;;;;5053828;28;20683;-72
2022/10/22 08:05:25;;;;;;;3.05;1.52;;;20.20;60.00;;;;;;5053959;28;20246;-72
2022/10/22 08:07:52;;;;;;;3.20;1.70;;;20.30;60.00;;;;;;5054209;28;20265;-72
2022/10/22 08:10:19;;;;;;;3.40;1.73;;;20.30;59.90;;;;;;5053599;28;20253;-72
2022/10/22 08:12:46;;;;;;;2.75;1.77;;;20.30;59.80;;;;;;5037179;28;20203;-72
2022/10/22 08:15:13;;;;;;;3.58;1.73;;;20.40;59.90;;;;;;5054057;28;20187;-72
2022/10/22 08:17:40;;;;;;;3.42;1.70;;;20.40;59.80;;;;;;5054213;28;20225;-72
2022/10/22 08:20:09;;;;;;;3.33;1.83;;;20.40;59.70;;;;;;5037738;28;20205;-72
2022/10/22 08:22:36;;;;;;;2.33;1.73;;;20.40;59.70;;;;;;5054865;28;20298;-72
2022/10/22 08:25:04;;;;;;;3.08;1.83;;;20.40;59.60;;;;;;5054949;28;20222;-71
2022/10/22 08:27:31;;;;;;;2.63;1.55;;;20.50;59.70;;;;;;5054500;28;20310;-72
2022/10/22 08:29:58;;;;;;;4.47;1.73;;;20.50;59.70;;;;;;5053926;28;20657;-72
2022/10/22 08:32:25;;;;;;;2.60;1.77;;;20.60;59.80;;;;;;5054545;28;20199;-72
2022/10/22 08:34:52;;;;;;;2.30;1.73;;;20.70;59.70;;;;;;5053589;28;20195;-72
2022/10/22 08:37:21;;;;;;;1.85;1.67;;;20.90;59.50;;;;;;5053727;28;20227;-72
2022/10/22 08:39:48;;;;;;;2.20;1.33;;;21.00;59.10;;;;;;5175579;22;20281;-72
2022/10/22 08:42:45;;;;;;;3.00;1.85;;;21.10;58.70;;;;;;5034502;28;20662;-72
2022/10/22 08:45:13;;;;;;;3.30;1.80;;;21.10;58.60;;;;;;5023984;28;20216;-70
2022/10/22 08:47:48;;;;;;;2.45;1.52;;;21.20;58.40;;;;;;5033103;28;20266;-70
2022/10/22 08:50:17;;;;;;;4.50;1.60;;;21.10;58.30;;;;;;5033442;28;20202;-70
2022/10/22 08:52:46;;;;;;;2.38;1.60;;;21.30;58.50;;;;;;5032246;28;20192;-69
2022/10/22 08:55:14;;;;;;;3.78;1.63;;;21.40;58.40;;;;;;5033007;28;20223;-69
2022/10/22 08:57:46;;;;;;;1.67;1.40;;;21.60;58.10;;;;;;5033251;28;20246;-69
2022/10/22 09:00:15;;;;;;;1.88;1.40;;;21.80;57.80;;;;;;5034455;28;20179;-69
2022/10/22 09:02:48;;;;;;;2.03;1.58;;;22.00;57.40;;;;;;5033541;28;20258;-69
2022/10/22 09:05:23;;;;;;;1.75;1.50;;;22.20;57.00;;;;;;5032886;28;20266;-69
2022/10/22 09:07:52;;;;;;;3.38;1.67;;;22.40;56.90;;;;;;5032800;28;20698;-69
2022/10/22 09:10:18;;;;;;;2.55;1.30;;;22.40;56.20;;;;;;5033149;28;20192;-69
2022/10/22 09:12:45;;;;;;;2.72;1.77;;;22.60;56.00;;;;;;5033368;28;20526;-69
2022/10/22 09:15:13;;;;;;;2.65;1.70;;;22.70;55.70;;;;;;5033942;28;20196;-69
2022/10/22 09:17:45;;;;;;;2.63;1.60;;;22.80;55.10;;;;;;5032811;28;20287;-69
2022/10/22 09:20:15;;;;;;;3.78;1.73;;;22.90;54.80;;;;;;5034407;28;20213;-71
2022/10/22 09:22:45;;;;;;;4.70;2.00;;;23.00;54.60;;;;;;5032425;28;20204;-71
2022/10/22 09:25:19;;;;;;;3.13;1.42;;;23.00;54.40;;;;;;5032710;28;20315;-71
2022/10/22 09:27:46;;;;;;;2.78;1.60;;;23.10;54.20;;;;;;5033080;28;20211;-71
2022/10/22 09:30:15;;;;;;;2.28;1.30;;;23.10;53.90;;;;;;5032287;28;20196;-71
2022/10/22 09:32:42;;;;;;;2.28;1.70;;;23.20;53.80;;;;;;5032315;28;20211;-71
2022/10/22 09:35:10;;;;;;;2.92;1.40;;;23.30;53.70;;;;;;5033710;28;20192;-71
2022/10/22 09:37:44;;;;;;;3.55;1.50;;;23.30;53.40;;;;;;5032461;28;20219;-70
2022/10/22 09:40:13;;;;;;;2.47;1.50;;;23.40;53.30;;;;;;5032106;28;20208;-70
2022/10/22 09:42:42;;;;;;;3.33;1.60;;;23.40;52.90;;;;;;5032453;28;20193;-70
2022/10/22 09:45:16;;;;;;;2.42;1.58;;;23.50;53.00;;;;;;5033051;28;20239;-70
2022/10/22 09:47:43;;;;;;;2.05;1.63;;;23.50;53.00;;;;;;5033488;28;20204;-70
2022/10/22 09:50:29;;;;;;;1.98;1.50;;;23.60;52.90;;;;;;5032433;28;20192;-71
2022/10/22 09:52:59;;;;;;;2.95;1.90;;;23.60;52.80;;;;;;5032506;28;20196;-71
2022/10/22 09:55:27;;;;;;;3.15;1.55;;;23.60;52.60;;;;;;5032243;28;20196;-71
2022/10/22 09:57:56;;;;;;;2.95;1.50;;;23.60;52.50;;;;;;5032129;28;20306;-71
2022/10/22 10:00:24;;;;;;;3.75;1.60;;;23.70;52.50;;;;;;5033222;28;20200;-71
2022/10/22 10:02:55;;;;;;;3.28;1.40;;;23.70;52.40;;;;;;5032072;28;20200;-71
2022/10/22 10:05:26;;;;;;;2.80;1.58;;;23.70;52.40;;;;;;5034726;28;20227;-71
2022/10/22 10:07:52;;;;;;;4.43;1.60;;;23.70;52.30;;;;;;5035762;28;20216;-71
2022/10/22 10:10:21;;;;;;;2.92;1.77;;;23.70;52.30;;;;;;5035802;28;20200;-71
2022/10/22 10:12:51;;;;;;;2.28;1.40;;;23.70;52.30;;;;;;5035659;28;20253;-71
2022/10/22 10:15:22;;;;;;;3.90;1.70;;;23.70;52.20;;;;;;5037008;28;20194;-71
2022/10/22 10:17:52;;;;;;;2.03;1.33;;;23.80;52.40;;;;;;5035409;28;20219;-71
2022/10/22 10:20:27;;;;;;;3.22;1.50;;;23.80;52.20;;;;;;5036053;28;20306;-71
2022/10/22 10:22:58;;;;;;;2.80;1.55;;;23.80;52.20;;;;;;5036629;28;20200;-71
2022/10/22 10:25:35;;;;;;;2.83;1.50;;;23.80;52.30;;;;;;5036077;28;20219;-71
2022/10/22 10:28:09;;;;;;;2.75;1.50;;;23.70;52.20;;;;;;5036599;28;20224;-71
2022/10/22 10:30:40;;;;;;;2.70;1.70;;;23.70;52.20;;;;;;5035959;28;20192;-71
2022/10/22 10:33:14;;;;;;;4.63;1.70;;;23.70;52.20;;;;;;5035584;28;20278;-71
2022/10/22 10:35:46;;;;;;;2.55;1.60;;;23.70;52.30;;;;;;5036514;28;20283;-71
2022/10/22 10:38:32;;;;;;;2.20;1.50;;;23.70;52.40;;;;;;5036402;28;20230;-71
2022/10/22 10:41:03;;;;;;;2.53;1.30;;;23.60;52.40;;;;;;5035897;28;20215;-71
2022/10/22 10:43:34;;;;;;;4.07;1.70;;;23.60;52.50;;;;;;5035483;28;20200;-71
2022/10/22 10:46:06;;;;;;;2.58;1.60;;;23.60;52.50;;;;;;5035315;28;20729;-71
2022/10/22 10:48:44;;;;;;;4.55;1.75;;;23.60;52.50;;;;;;5035732;28;20247;-71
2022/10/22 10:51:18;;;;;;;3.47;1.70;;;23.60;52.50;;;;;;5035476;28;20211;-71
2022/10/22 10:53:53;;;;;;;2.53;1.50;;;23.50;52.50;;;;;;5036274;28;20188;-71
2022/10/22 10:56:31;;;;;;;4.32;1.70;;;23.60;52.60;;;;;;5035873;28;20278;-72
2022/10/22 10:59:07;;;;;;;4.70;1.63;;;23.60;52.70;;;;;;5037273;28;20334;-72
2022/10/22 11:01:39;;;;;;;3.60;1.50;;;23.50;53.30;;;;;;5038445;28;20259;-72
2022/10/22 11:04:24;;;;;;;4.43;1.92;;;23.50;52.90;;;;;;5037236;28;20245;-71
2022/10/22 11:06:53;;;;;;;4.30;1.38;;;23.50;53.00;;;;;;5036424;28;20227;-72
2022/10/22 11:09:23;;;;;;;3.55;1.80;;;23.50;53.10;;;;;;5036425;28;20184;-72
2022/10/22 11:11:51;;;;;;;3.85;1.70;;;23.50;53.10;;;;;;5037320;28;20242;-72
2022/10/22 11:14:21;;;;;;;2.85;1.60;;;23.50;53.20;;;;;;5035894;28;20238;-70
2022/10/22 11:16:51;;;;;;;2.67;1.40;;;23.50;53.20;;;;;;5034335;28;20200;-70
2022/10/22 11:19:20;;;;;;;3.33;1.60;;;23.50;53.20;;;;;;5035175;28;20224;-70
2022/10/22 11:21:49;;;;;;;2.50;1.42;;;23.50;53.20;;;;;;5034588;28;20638;-70
2022/10/22 11:24:19;;;;;;;3.00;1.70;;;23.50;53.30;;;;;;5035169;28;20266;-70
2022/10/22 11:26:48;;;;;;;2.03;1.42;;;23.50;53.30;;;;;;5034675;28;20277;-70
2022/10/22 11:29:17;;;;;;;2.65;1.30;;;23.50;53.30;;;;;;5035139;28;20196;-70
2022/10/22 11:31:44;;;;;;;3.42;1.60;;;23.50;53.30;;;;;;5034562;28;20196;-70
2022/10/22 11:37:15;;;;;;;3.75;1.48;;;23.50;53.40;;;;;;4956443;28;20605;-73
2022/10/22 11:39:44;;;;;;;3.90;1.67;;;23.50;53.30;;;;;;4956260;29;20729;-73
2022/10/22 11:42:12;;;;;;;3.22;1.38;;;23.50;53.30;;;;;;4972941;28;20506;-73
2022/10/22 11:44:47;;;;;;;2.22;1.50;;;23.50;53.40;;;;;;4972128;28;20206;-73
2022/10/22 11:47:19;;;;;;;2.03;1.50;;;23.60;53.50;;;;;;4956173;29;20735;-73
2022/10/22 11:49:58;;;;;;;3.10;1.42;;;23.50;53.40;;;;;;4972354;28;20211;-72
2022/10/22 11:52:27;;;;;;;2.25;1.65;;;23.60;53.50;;;;;;4956122;29;20261;-72
2022/10/22 11:54:56;;;;;;;3.05;1.73;;;23.60;53.40;;;;;;4955633;28;20210;-72
2022/10/22 11:57:27;;;;;;;3.00;1.83;;;23.60;53.50;;;;;;4956881;28;20230;-72
2022/10/22 11:59:57;;;;;;;4.35;1.70;;;23.60;53.30;;;;;;4972526;28;20212;-73
2022/10/22 12:02:41;;;;;;;2.72;1.88;;;23.60;53.50;;;;;;4952396;28;20277;-73
2022/10/22 12:05:31;;;;;;;3.20;1.90;;;23.60;53.50;;;;;;4958767;28;20230;-72
2022/10/22 12:07:59;;;;;;;2.20;1.67;;;23.70;53.50;;;;;;4972707;28;20231;-72
2022/10/22 12:10:27;;;;;;;2.80;1.70;;;23.70;52.80;;;;;;4943453;28;20212;-72
2022/10/22 12:12:55;;;;;;;4.68;2.88;;;23.70;53.00;;;;;;4972931;28;20194;-72
2022/10/22 12:15:24;;;;;;;2.25;1.73;;;23.70;53.10;;;;;;4956468;29;20194;-73
2022/10/22 12:17:51;;;;;;;4.35;1.92;;;23.70;53.10;;;;;;4973748;28;20241;-73
2022/10/22 12:20:19;;;;;;;2.28;1.90;;;23.70;53.00;;;;;;4956717;28;20214;-72
2022/10/22 12:22:46;;;;;;;2.97;1.80;;;23.70;52.90;;;;;;4956565;28;20245;-73
2022/10/22 12:25:18;;;;;;;3.90;2.13;;;23.70;52.80;;;;;;4956011;29;20218;-73
2022/10/22 12:27:50;;;;;;;3.95;2.03;;;23.70;52.70;;;;;;4955522;28;20338;-73
2022/10/22 12:30:20;;;;;;;4.15;2.03;;;23.70;52.70;;;;;;4956310;29;20202;-73
2022/10/22 12:32:47;;;;;;;3.88;2.20;;;23.70;52.90;;;;;;4976638;28;20466;-73
2022/10/22 12:35:16;;;;;;;8.35;3.40;;;23.70;52.90;;;;;;4978219;28;20210;-73
2022/10/22 12:38:01;;;;;;;6.57;2.53;;;23.60;53.20;;;;;;4991299;28;20265;-73
2022/10/22 12:40:28;;;;;;;8.77;2.60;;;23.60;53.50;;;;;;4990557;28;20571;-72
2022/10/22 12:42:56;;;;;;;6.65;2.72;;;23.50;54.00;;;;;;4974724;28;20269;-72
2022/10/22 12:45:24;;;;;;;5.07;3.00;;;23.60;54.00;;;;;;4991986;28;20562;-72
2022/10/22 12:47:56;;;;;;;8.05;3.40;;;23.50;53.80;;;;;;4991069;28;20225;-72
2022/10/22 12:50:25;;;;;;;9.93;4.30;;;23.50;54.10;;;;;;4974605;28;20228;-73
2022/10/22 12:52:52;;;;;;;6.22;4.50;;;23.50;54.10;;;;;;4974886;28;20198;-72
2022/10/22 12:55:24;;;;;;;6.72;4.63;;;23.50;53.60;;;;;;4974352;28;20292;-73
2022/10/22 12:57:51;;;;;;;8.40;3.92;;;23.50;53.40;;;;;;4972463;28;20241;-72
2022/10/22 13:00:23;;;;;;;6.32;4.18;;;23.50;53.40;;;;;;4973920;28;20695;-72